ダッカ の空港の天気 - METARとTAF

シャージャラル国際空港(ダッカ) ( VGHS / DAC ) - バングラデシュ ダッカ
飛行場実況気象(Metar)
観測時間12/10 11:30 BDT (12/10 05:30 UTC)
風向・風速北東 3m/s
視程4000m
天気現象煙霧
なし
気温25℃
湿度57%
気圧1015hPa
METARVGHS 100530Z 05005KT 4000 HZ NSC 25/16 Q1015 NOSIG
過去の天気等 Google飛行場航空写真 Wunderground天気予報

過去48時間のMETAR

飛行場予報(TAF)
発表時間: 12/10 05:00 BDT (12/09 23:00 UTC)
予報対象時間: 10日6時 BDT ~ 11日12時 BDT
風向・風速静穏
視程1200m
天気現象もや
全天の4割程度の雲 雲底高度 210m
10日6時 BDT ~ 10日9時 BDT に一時的に
風向・風速静穏
視程800m
天気現象
全天の8割程度の雲 雲底高度 210m
10日10時 BDT ~ 10日11時 BDT に徐々に
風向・風速北北西 2m/s
視程2200m
天気現象もや
全天の4割程度の雲 雲底高度 300m
10日13時 BDT ~ 10日15時 BDT に徐々に
風向・風速北 3m/s
視程3200m
天気現象煙霧
なし
11日1時 BDT ~ 11日3時 BDT に徐々に
風向・風速静穏
視程2000m
天気現象もや
全天の4割程度の雲 雲底高度 300m
11日5時 BDT ~ 11日9時 BDT に一時的に
風向・風速静穏
視程800m
天気現象
全天の8割程度の雲 雲底高度 120m
11日11時 BDT ~ 11日12時 BDT に徐々に
風向・風速北北西 3m/s
視程2500m
天気現象もや
全天の4割程度の雲 雲底高度 300m
TAF VGHS 092300Z 1000/1106 00000KT 1200 BR SCT007
TEMPO 1000/1003 00000KT 0800 FG BKN007
BECMG 1004/1005 34004KT 2200 BR SCT010
BECMG 1007/1009 35005KT 3200 HZ NSC
BECMG 1019/1021 00000KT 2000 BR SCT010
TEMPO 1023/1103 00000KT 0800 FG BKN004
BECMG 1105/1106 34005KT 2500 BR SCT010